createdAt,value
2023-08-13T00:00:17.765Z,65.49
2023-08-13T00:03:10.475Z,65.13
2023-08-13T00:05:43.034Z,65.71
2023-08-13T00:08:15.591Z,65.14
2023-08-13T00:10:48.155Z,65.70
2023-08-13T00:13:20.546Z,66.29
2023-08-13T00:15:52.730Z,66.14
2023-08-13T00:18:24.913Z,66.37
2023-08-13T00:20:56.971Z,66.15
2023-08-13T00:23:29.753Z,65.96
2023-08-13T00:26:02.179Z,66.08
2023-08-13T00:28:34.947Z,66.27
2023-08-13T00:31:07.272Z,66.75
2023-08-13T00:33:39.663Z,66.89
2023-08-13T00:36:12.166Z,67.00
2023-08-13T00:38:44.970Z,67.12
2023-08-13T00:41:17.229Z,67.17
2023-08-13T00:43:50.891Z,67.34
2023-08-13T00:46:23.696Z,67.62
2023-08-13T00:49:00.041Z,67.45
2023-08-13T00:51:33.291Z,67.30
2023-08-13T00:54:06.324Z,67.55
2023-08-13T00:56:39.233Z,67.97
2023-08-13T00:59:12.352Z,68.00
2023-08-13T01:01:45.734Z,68.16
2023-08-13T01:04:18.266Z,68.31
2023-08-13T01:07:04.429Z,68.44
2023-08-13T01:09:45.865Z,68.24
2023-08-13T01:12:24.795Z,68.59
2023-08-13T01:15:07.556Z,69.29
2023-08-13T01:17:42.068Z,69.08
2023-08-13T01:20:15.636Z,69.31
2023-08-13T01:22:50.946Z,69.93
2023-08-13T01:25:26.391Z,70.37
2023-08-13T01:28:04.254Z,70.46
2023-08-13T01:30:40.709Z,70.61
2023-08-13T01:33:14.898Z,70.53
2023-08-13T01:35:49.221Z,72.41
2023-08-13T01:38:22.962Z,73.31
2023-08-13T01:40:55.789Z,73.23
2023-08-13T01:43:28.674Z,73.60
2023-08-13T01:46:02.947Z,74.48
2023-08-13T01:48:35.381Z,74.49
2023-08-13T01:51:08.015Z,74.79
2023-08-13T01:53:40.802Z,74.68
2023-08-13T01:56:12.961Z,75.18
2023-08-13T01:58:45.296Z,75.71
2023-08-13T02:01:17.504Z,73.86
2023-08-13T02:03:50.104Z,73.74
2023-08-13T02:06:23.744Z,72.47
2023-08-13T02:08:56.095Z,72.97
2023-08-13T02:11:28.612Z,73.59
2023-08-13T02:14:02.197Z,74.84
2023-08-13T02:16:34.681Z,76.15
2023-08-13T02:19:07.610Z,77.54
2023-08-13T02:21:39.600Z,78.40
2023-08-13T02:24:12.178Z,77.75
2023-08-13T02:26:44.660Z,79.11
2023-08-13T02:29:16.897Z,78.83
2023-08-13T02:31:49.241Z,79.17
2023-08-13T02:34:21.563Z,78.81
2023-08-13T02:36:54.199Z,80.50
2023-08-13T02:39:26.483Z,81.62
2023-08-13T02:41:59.001Z,81.80
2023-08-13T02:44:31.285Z,81.52
2023-08-13T02:47:03.365Z,81.17
2023-08-13T02:49:35.509Z,81.64
2023-08-13T02:52:08.305Z,82.14
2023-08-13T02:54:40.404Z,83.13
2023-08-13T02:57:12.530Z,83.42
2023-08-13T02:59:44.745Z,84.10
2023-08-13T03:02:18.160Z,84.98
2023-08-13T03:04:50.419Z,85.08
2023-08-13T03:07:22.722Z,85.42
2023-08-13T03:09:54.941Z,85.17
2023-08-13T03:12:27.488Z,85.88
2023-08-13T03:14:59.832Z,86.24
2023-08-13T03:17:32.172Z,86.71
2023-08-13T03:20:04.983Z,87.45
2023-08-13T03:22:38.448Z,87.68
2023-08-13T03:25:11.506Z,85.85
2023-08-13T03:27:43.754Z,83.97
2023-08-13T03:30:19.521Z,85.46
2023-08-13T03:32:52.631Z,84.56
2023-08-13T03:35:25.464Z,84.76
2023-08-13T03:37:57.769Z,84.88
2023-08-13T03:40:30.446Z,86.24
2023-08-13T03:43:03.137Z,87.98
2023-08-13T03:45:35.855Z,89.22
2023-08-13T03:48:08.848Z,88.64
2023-08-13T03:50:45.251Z,89.69
2023-08-13T03:53:23.502Z,88.75
2023-08-13T03:55:56.072Z,86.31
2023-08-13T03:58:28.792Z,84.69
2023-08-13T04:01:07.578Z,84.84
2023-08-13T04:03:40.810Z,84.91
2023-08-13T04:06:12.885Z,84.20
2023-08-13T04:08:45.442Z,83.82
2023-08-13T04:11:18.082Z,83.80
2023-08-13T04:13:50.646Z,83.68
2023-08-13T04:16:23.492Z,83.31
2023-08-13T04:18:55.902Z,83.42
2023-08-13T04:21:29.226Z,83.44
2023-08-13T04:24:01.510Z,83.87
2023-08-13T04:26:33.962Z,84.00
2023-08-13T04:29:06.446Z,83.22
2023-08-13T04:31:38.840Z,83.28
2023-08-13T04:34:11.056Z,83.39
2023-08-13T04:36:43.359Z,83.92
2023-08-13T04:39:17.173Z,83.74
2023-08-13T04:41:49.648Z,84.06
2023-08-13T04:44:23.877Z,84.64
2023-08-13T04:46:56.253Z,84.31
2023-08-13T04:49:29.082Z,84.24
2023-08-13T04:52:01.425Z,84.81
2023-08-13T04:54:33.926Z,84.56
2023-08-13T04:57:06.229Z,84.08
2023-08-13T04:59:38.815Z,84.54
2023-08-13T05:02:11.436Z,85.14
2023-08-13T05:04:44.238Z,84.76
2023-08-13T05:07:16.674Z,85.45
2023-08-13T05:09:49.321Z,85.73
2023-08-13T05:12:21.595Z,85.32
2023-08-13T05:14:54.376Z,85.74
2023-08-13T05:17:27.451Z,85.84
2023-08-13T05:19:59.764Z,85.40
2023-08-13T05:22:32.173Z,85.21
2023-08-13T05:25:04.837Z,84.73
2023-08-13T05:27:37.150Z,84.59
2023-08-13T05:30:11.395Z,84.73
2023-08-13T05:32:44.392Z,84.27
2023-08-13T05:35:16.988Z,84.38
2023-08-13T05:37:49.382Z,83.92
2023-08-13T05:40:21.842Z,83.78
2023-08-13T05:42:54.268Z,83.45
2023-08-13T05:45:26.840Z,83.46
2023-08-13T05:47:59.503Z,83.13
2023-08-13T05:50:35.186Z,83.22
2023-08-13T05:53:08.011Z,83.17
2023-08-13T05:55:40.813Z,82.97
2023-08-13T05:58:13.012Z,82.96
2023-08-13T06:00:45.578Z,82.72
2023-08-13T06:03:17.795Z,82.57
2023-08-13T06:05:50.728Z,82.25
2023-08-13T06:08:22.955Z,82.33
2023-08-13T06:10:55.787Z,82.58
2023-08-13T06:13:28.067Z,81.84
2023-08-13T06:16:00.628Z,81.42
2023-08-13T06:18:32.940Z,81.46
2023-08-13T06:21:05.991Z,81.70
2023-08-13T06:23:40.084Z,81.80
2023-08-13T06:26:12.738Z,81.44
2023-08-13T06:28:45.320Z,80.18
2023-08-13T06:31:32.902Z,79.82
2023-08-13T06:34:10.178Z,79.82
2023-08-13T06:36:42.486Z,79.43
2023-08-13T06:39:14.682Z,79.21
2023-08-13T06:41:47.033Z,78.66
2023-08-13T06:44:22.180Z,78.42
2023-08-13T06:46:54.808Z,77.92
2023-08-13T06:49:26.974Z,76.66
2023-08-13T06:51:59.375Z,75.81
2023-08-13T06:54:31.560Z,75.24
2023-08-13T06:57:04.030Z,74.81
2023-08-13T06:59:36.168Z,74.59
2023-08-13T07:02:08.384Z,74.49
2023-08-13T07:04:40.762Z,74.91
2023-08-13T07:07:13.178Z,75.01
2023-08-13T07:09:45.495Z,75.05
2023-08-13T07:12:18.204Z,75.01
2023-08-13T07:14:50.727Z,75.68
2023-08-13T07:17:23.552Z,75.56
2023-08-13T07:19:55.752Z,76.02
2023-08-13T07:22:27.819Z,75.57
2023-08-13T07:25:00.732Z,74.21
2023-08-13T07:27:33.436Z,73.76
2023-08-13T07:30:06.731Z,73.30
2023-08-13T07:32:40.149Z,73.14
2023-08-13T07:35:13.648Z,71.90
2023-08-13T07:37:46.082Z,71.92
2023-08-13T07:40:18.332Z,71.43
2023-08-13T07:42:50.773Z,70.55
2023-08-13T07:45:23.543Z,71.13
2023-08-13T07:47:56.290Z,70.64
2023-08-13T07:50:29.446Z,70.33
2023-08-13T07:53:01.621Z,70.60
2023-08-13T07:55:34.052Z,70.91
2023-08-13T07:58:06.559Z,70.16
2023-08-13T08:00:38.938Z,70.52
2023-08-13T08:03:14.756Z,70.15
2023-08-13T08:05:51.369Z,70.79
2023-08-13T08:08:26.094Z,70.55
2023-08-13T08:10:58.295Z,68.89
2023-08-13T08:13:33.318Z,68.35
2023-08-13T08:16:07.037Z,68.80
2023-08-13T08:18:43.969Z,68.19
2023-08-13T08:21:17.310Z,67.85
2023-08-13T08:23:50.715Z,67.78
2023-08-13T08:26:23.824Z,67.92
2023-08-13T08:28:56.908Z,67.50
2023-08-13T08:31:29.671Z,67.42
2023-08-13T08:34:02.277Z,67.87
2023-08-13T08:36:37.710Z,67.99
2023-08-13T08:39:11.097Z,67.87
2023-08-13T08:41:48.867Z,68.60
2023-08-13T08:44:23.592Z,68.25
2023-08-13T08:46:59.531Z,68.00
2023-08-13T08:49:34.516Z,68.52
2023-08-13T08:52:09.087Z,68.18
2023-08-13T08:54:43.297Z,68.67
2023-08-13T08:57:16.296Z,68.61
2023-08-13T08:59:50.374Z,68.32
2023-08-13T09:02:25.087Z,66.84
2023-08-13T09:04:59.260Z,66.83
2023-08-13T09:07:35.595Z,66.91
2023-08-13T09:10:09.480Z,66.19
2023-08-13T09:12:44.158Z,66.25
2023-08-13T09:15:17.319Z,66.38
2023-08-13T09:17:51.305Z,65.87
2023-08-13T09:20:25.416Z,64.70
2023-08-13T09:23:02.794Z,64.33
2023-08-13T09:25:35.851Z,64.26
2023-08-13T09:28:09.680Z,64.80
2023-08-13T09:30:42.496Z,63.55
2023-08-13T09:33:18.257Z,63.89
2023-08-13T09:35:51.303Z,63.29
2023-08-13T09:38:25.474Z,63.09
2023-08-13T09:40:59.066Z,62.42
2023-08-13T09:43:33.867Z,62.83
2023-08-13T09:46:10.229Z,63.28
2023-08-13T09:48:48.691Z,61.98
2023-08-13T09:51:37.039Z,61.98
2023-08-13T09:54:17.003Z,61.71
2023-08-13T09:56:56.305Z,60.91
2023-08-13T09:59:30.266Z,60.66
2023-08-13T10:02:07.016Z,60.14
2023-08-13T10:04:41.317Z,59.92
2023-08-13T10:07:15.196Z,59.53
2023-08-13T10:09:58.949Z,59.18
2023-08-13T10:12:39.478Z,58.23
2023-08-13T10:15:12.730Z,58.09
2023-08-13T10:17:48.238Z,59.58
2023-08-13T10:20:22.466Z,59.19
2023-08-13T10:22:55.858Z,57.95
2023-08-13T10:25:31.208Z,58.28
2023-08-13T10:28:21.154Z,57.00
2023-08-13T10:31:13.513Z,55.73
2023-08-13T10:33:46.679Z,55.38
2023-08-13T10:36:20.343Z,55.28
2023-08-13T10:38:52.729Z,55.28
2023-08-13T10:41:36.436Z,54.66
2023-08-13T10:44:32.326Z,54.14
2023-08-13T10:47:05.814Z,54.12
2023-08-13T10:49:42.716Z,53.72
2023-08-13T10:52:17.316Z,54.34
2023-08-13T10:54:50.580Z,54.13
2023-08-13T10:57:30.589Z,54.06
2023-08-13T11:00:04.199Z,54.20
2023-08-13T11:02:36.606Z,51.95
2023-08-13T11:05:09.652Z,52.35
2023-08-13T11:07:44.823Z,52.23
2023-08-13T11:10:20.666Z,52.13
2023-08-13T11:12:53.404Z,51.71
2023-08-13T11:15:29.697Z,52.14
2023-08-13T11:18:02.252Z,52.32
2023-08-13T11:20:35.633Z,51.94
2023-08-13T11:23:11.161Z,51.35
2023-08-13T11:25:44.000Z,51.49
2023-08-13T11:28:21.559Z,51.33
2023-08-13T11:30:55.250Z,50.84
2023-08-13T11:33:30.530Z,50.73
2023-08-13T11:36:03.118Z,51.87
2023-08-13T11:38:35.765Z,51.38
2023-08-13T11:41:15.564Z,51.42
2023-08-13T11:43:56.260Z,50.03
2023-08-13T11:46:28.800Z,50.74
2023-08-13T11:49:04.538Z,50.62
2023-08-13T11:51:43.312Z,49.76
2023-08-13T11:54:15.698Z,49.34
2023-08-13T11:56:49.997Z,49.70
2023-08-13T11:59:31.332Z,49.80
2023-08-13T12:02:04.496Z,49.23
2023-08-13T12:04:38.124Z,48.60
2023-08-13T12:07:12.891Z,49.25
2023-08-13T12:09:45.086Z,48.73
2023-08-13T12:12:17.630Z,49.26
2023-08-13T12:14:51.494Z,50.28
2023-08-13T12:17:25.928Z,51.16
2023-08-13T12:19:58.266Z,49.78
2023-08-13T12:22:30.636Z,49.37
2023-08-13T12:25:03.189Z,49.42
2023-08-13T12:27:35.778Z,50.45
2023-08-13T12:30:09.822Z,49.89
2023-08-13T12:32:42.427Z,50.19
2023-08-13T12:35:14.728Z,49.78
2023-08-13T12:37:48.527Z,49.34
2023-08-13T12:40:20.820Z,49.97
2023-08-13T12:42:53.223Z,50.26
2023-08-13T12:45:25.573Z,48.91
2023-08-13T12:47:58.000Z,49.11
2023-08-13T12:50:30.555Z,50.01
2023-08-13T12:53:06.310Z,48.67
2023-08-13T12:55:39.117Z,48.33
2023-08-13T12:58:12.686Z,48.07
2023-08-13T13:00:45.613Z,49.15
2023-08-13T13:03:17.765Z,48.92
2023-08-13T13:05:50.523Z,48.43
2023-08-13T13:08:22.752Z,48.35
2023-08-13T13:10:55.058Z,48.20
2023-08-13T13:13:29.528Z,47.03
2023-08-13T13:16:01.895Z,46.49
2023-08-13T13:18:34.221Z,47.61
2023-08-13T13:21:06.820Z,46.96
2023-08-13T13:23:42.839Z,46.29
2023-08-13T13:26:17.816Z,46.49
2023-08-13T13:28:51.568Z,47.31
2023-08-13T13:31:23.707Z,47.44
2023-08-13T13:33:56.100Z,48.27
2023-08-13T13:36:28.421Z,47.99
2023-08-13T13:39:00.722Z,48.23
2023-08-13T13:41:33.235Z,48.70
2023-08-13T13:44:07.049Z,49.24
2023-08-13T13:46:39.317Z,49.51
2023-08-13T13:49:12.125Z,49.72
2023-08-13T13:51:45.036Z,49.63
2023-08-13T13:54:17.573Z,51.14
2023-08-13T13:56:49.964Z,51.61
2023-08-13T13:59:22.395Z,48.32
2023-08-13T14:01:54.795Z,48.22
2023-08-13T14:04:28.190Z,50.00
2023-08-13T14:07:00.749Z,48.54
2023-08-13T14:09:33.129Z,47.37
2023-08-13T14:12:05.649Z,47.49
2023-08-13T14:14:38.129Z,46.06
2023-08-13T14:17:10.426Z,45.39
2023-08-13T14:19:44.068Z,44.86
2023-08-13T14:22:17.162Z,45.35
2023-08-13T14:24:49.682Z,45.00
2023-08-13T14:27:24.127Z,45.78
2023-08-13T14:29:58.797Z,44.41
2023-08-13T14:32:31.288Z,44.42
2023-08-13T14:35:03.641Z,44.69
2023-08-13T14:37:35.895Z,44.10
2023-08-13T14:40:10.032Z,44.18
2023-08-13T14:42:42.301Z,43.45
2023-08-13T14:45:15.282Z,44.62
2023-08-13T14:47:47.629Z,45.53
2023-08-13T14:50:20.897Z,43.29
2023-08-13T14:52:53.012Z,43.14
2023-08-13T14:55:25.364Z,44.34
2023-08-13T14:57:57.975Z,43.87
2023-08-13T15:00:30.699Z,44.25
2023-08-13T15:03:03.441Z,44.18
2023-08-13T15:05:36.715Z,44.83
2023-08-13T15:08:09.133Z,44.47
2023-08-13T15:10:41.399Z,43.91
2023-08-13T15:13:17.548Z,44.48
2023-08-13T15:15:50.133Z,45.82
2023-08-13T15:18:22.489Z,45.91
2023-08-13T15:20:56.687Z,45.14
2023-08-13T15:23:29.142Z,43.71
2023-08-13T15:26:01.985Z,44.33
2023-08-13T15:28:37.167Z,45.26
2023-08-13T15:31:11.073Z,45.75
2023-08-13T15:33:43.596Z,43.67
2023-08-13T15:36:15.853Z,44.42
2023-08-13T15:38:48.372Z,44.31
2023-08-13T15:41:21.140Z,44.29
2023-08-13T15:43:53.715Z,43.59
2023-08-13T15:46:28.340Z,45.42
2023-08-13T15:49:03.486Z,45.83
2023-08-13T15:51:35.760Z,45.22
2023-08-13T15:54:09.940Z,45.25
2023-08-13T15:56:42.683Z,45.87
2023-08-13T15:59:15.380Z,46.17
2023-08-13T16:01:50.717Z,45.19
2023-08-13T16:04:21.569Z,44.77
2023-08-13T16:06:53.985Z,45.97
2023-08-13T16:09:26.437Z,45.64
2023-08-13T16:11:58.671Z,45.45
2023-08-13T16:14:31.385Z,45.36
2023-08-13T16:17:04.181Z,45.55
2023-08-13T16:19:38.220Z,45.06
2023-08-13T16:22:10.511Z,45.03
2023-08-13T16:24:42.672Z,45.47
2023-08-13T16:27:14.880Z,46.21
2023-08-13T16:29:47.726Z,46.32
2023-08-13T16:32:29.552Z,46.66
2023-08-13T16:35:03.124Z,47.46
2023-08-13T16:37:36.657Z,49.24
2023-08-13T16:40:11.287Z,48.01
2023-08-13T16:42:55.294Z,48.46
2023-08-13T16:45:35.720Z,49.76
2023-08-13T16:48:08.743Z,50.87
2023-08-13T16:50:41.363Z,51.59
2023-08-13T16:53:13.549Z,51.74
2023-08-13T16:55:46.040Z,51.89
2023-08-13T16:58:18.879Z,52.61
2023-08-13T17:00:51.683Z,52.81
2023-08-13T17:03:24.637Z,53.87
2023-08-13T17:05:57.206Z,53.76
2023-08-13T17:08:29.465Z,54.04
2023-08-13T17:11:02.067Z,54.26
2023-08-13T17:13:34.353Z,54.30
2023-08-13T17:16:09.621Z,55.31
2023-08-13T17:18:42.152Z,55.43
2023-08-13T17:21:17.204Z,55.35
2023-08-13T17:23:49.459Z,55.63
2023-08-13T17:26:22.357Z,55.74
2023-08-13T17:28:54.947Z,56.38
2023-08-13T17:31:27.613Z,56.38
2023-08-13T17:34:00.280Z,55.09
2023-08-13T17:36:32.588Z,56.06
2023-08-13T17:39:04.974Z,54.68
2023-08-13T17:41:37.518Z,53.24
2023-08-13T17:44:10.496Z,53.59
2023-08-13T17:46:42.951Z,54.23
2023-08-13T17:49:15.274Z,52.94
2023-08-13T17:51:47.590Z,54.04
2023-08-13T17:54:21.528Z,54.60
2023-08-13T17:56:54.033Z,54.29
2023-08-13T17:59:27.314Z,53.35
2023-08-13T18:02:01.482Z,53.34
2023-08-13T18:04:34.018Z,55.81
2023-08-13T18:07:06.546Z,56.43
2023-08-13T18:09:39.019Z,55.97
2023-08-13T18:12:12.499Z,57.09
2023-08-13T18:14:44.819Z,56.82
2023-08-13T18:17:17.380Z,57.03
2023-08-13T18:19:50.652Z,57.89
2023-08-13T18:22:23.233Z,58.71
2023-08-13T18:24:56.482Z,59.73
2023-08-13T18:27:28.993Z,59.63
2023-08-13T18:30:01.492Z,59.92
2023-08-13T18:32:34.074Z,59.99
2023-08-13T18:35:07.368Z,62.84
2023-08-13T18:37:39.582Z,63.86
2023-08-13T18:40:13.137Z,64.22
2023-08-13T18:42:45.561Z,64.34
2023-08-13T18:45:18.372Z,65.24
2023-08-13T18:47:50.757Z,65.51
2023-08-13T18:50:23.178Z,65.46
2023-08-13T18:52:57.212Z,65.14
2023-08-13T18:55:29.712Z,64.62
2023-08-13T18:58:02.729Z,64.00
2023-08-13T19:00:35.633Z,62.83
2023-08-13T19:03:08.535Z,62.83
2023-08-13T19:05:44.026Z,62.90
2023-08-13T19:08:17.419Z,64.03
2023-08-13T19:10:51.227Z,63.06
2023-08-13T19:13:29.911Z,61.29
2023-08-13T19:16:04.285Z,60.88
2023-08-13T19:18:41.837Z,61.83
2023-08-13T19:21:19.517Z,63.23
2023-08-13T19:23:54.005Z,61.35
2023-08-13T19:26:28.122Z,60.87
2023-08-13T19:29:01.033Z,60.79
2023-08-13T19:31:38.407Z,61.47
2023-08-13T19:34:12.329Z,61.65
2023-08-13T19:36:48.161Z,61.76
2023-08-13T19:39:23.195Z,62.17
2023-08-13T19:41:55.233Z,62.31
2023-08-13T19:44:37.779Z,62.99
2023-08-13T19:47:12.724Z,64.17
2023-08-13T19:49:44.919Z,63.72
2023-08-13T19:52:17.409Z,65.26
2023-08-13T19:54:50.325Z,64.15
2023-08-13T19:57:23.927Z,64.75
2023-08-13T19:59:57.232Z,64.86
2023-08-13T20:02:30.690Z,65.26
2023-08-13T20:05:03.390Z,66.27
2023-08-13T20:07:36.068Z,66.31
2023-08-13T20:10:09.247Z,66.61
2023-08-13T20:12:41.400Z,66.25
2023-08-13T20:15:14.900Z,65.95
2023-08-13T20:17:47.310Z,66.75
2023-08-13T20:20:20.010Z,66.15
2023-08-13T20:22:52.184Z,65.42
2023-08-13T20:25:24.712Z,65.62
2023-08-13T20:27:57.016Z,65.82
2023-08-13T20:30:29.187Z,65.96
2023-08-13T20:33:01.953Z,66.67
2023-08-13T20:35:34.577Z,66.90
2023-08-13T20:38:07.120Z,67.03
2023-08-13T20:40:39.374Z,67.08
2023-08-13T20:43:11.733Z,66.60
2023-08-13T20:45:44.304Z,65.48
2023-08-13T20:48:18.841Z,65.99
2023-08-13T20:50:52.565Z,66.81
2023-08-13T20:53:24.906Z,66.93
2023-08-13T20:55:57.261Z,67.04
2023-08-13T20:58:29.415Z,67.04
2023-08-13T21:01:01.727Z,66.90
2023-08-13T21:03:34.278Z,66.93
2023-08-13T21:06:06.870Z,66.45
2023-08-13T21:08:39.506Z,66.46
2023-08-13T21:11:11.870Z,66.89
2023-08-13T21:13:44.276Z,67.93
2023-08-13T21:16:16.908Z,68.08
2023-08-13T21:18:50.237Z,68.03
2023-08-13T21:21:22.829Z,67.64
2023-08-13T21:23:56.340Z,67.20
2023-08-13T21:26:28.818Z,66.36
2023-08-13T21:29:00.960Z,66.43
2023-08-13T21:31:33.551Z,66.79
2023-08-13T21:34:05.858Z,67.21
2023-08-13T21:36:38.835Z,67.04
2023-08-13T21:39:12.545Z,66.91
2023-08-13T21:41:45.514Z,67.03
2023-08-13T21:44:18.272Z,66.88
2023-08-13T21:46:51.005Z,67.08
2023-08-13T21:49:23.908Z,67.77
2023-08-13T21:51:56.613Z,67.76
2023-08-13T21:54:29.692Z,68.62
2023-08-13T21:57:02.581Z,68.48
2023-08-13T21:59:36.508Z,68.63
2023-08-13T22:02:10.848Z,68.63
2023-08-13T22:04:43.246Z,68.60
2023-08-13T22:07:16.163Z,68.76
2023-08-13T22:09:49.612Z,68.95
2023-08-13T22:12:22.291Z,68.93
2023-08-13T22:14:54.741Z,67.89
2023-08-13T22:17:27.342Z,68.03
2023-08-13T22:20:00.502Z,68.54
2023-08-13T22:22:33.388Z,68.16
2023-08-13T22:25:06.943Z,68.47
2023-08-13T22:27:39.711Z,68.67
2023-08-13T22:30:14.401Z,67.84
2023-08-13T22:32:46.555Z,68.24
2023-08-13T22:35:19.240Z,68.31
2023-08-13T22:37:51.994Z,68.44
2023-08-13T22:40:25.925Z,67.89
2023-08-13T22:42:58.999Z,67.74
2023-08-13T22:45:31.636Z,67.38
2023-08-13T22:48:04.898Z,67.60
2023-08-13T22:50:37.479Z,66.54
2023-08-13T22:53:10.516Z,66.18
2023-08-13T22:55:42.679Z,66.69
2023-08-13T22:58:15.132Z,66.54
2023-08-13T23:00:47.455Z,66.95
2023-08-13T23:03:21.340Z,66.85
2023-08-13T23:05:53.509Z,66.49
2023-08-13T23:08:26.442Z,66.65
2023-08-13T23:10:59.055Z,66.72
2023-08-13T23:13:31.295Z,66.40
2023-08-13T23:16:03.520Z,66.52
2023-08-13T23:18:35.842Z,65.52
2023-08-13T23:21:08.250Z,65.60
2023-08-13T23:23:41.186Z,65.33
2023-08-13T23:26:13.309Z,65.50
2023-08-13T23:28:46.473Z,64.50
2023-08-13T23:31:19.029Z,63.69
2023-08-13T23:33:51.654Z,63.29
2023-08-13T23:36:24.374Z,63.31
2023-08-13T23:38:56.769Z,63.70
2023-08-13T23:41:29.588Z,64.48
2023-08-13T23:44:01.724Z,64.42
2023-08-13T23:46:34.096Z,64.81
2023-08-13T23:49:06.653Z,64.81
2023-08-13T23:51:39.415Z,65.09
2023-08-13T23:54:11.783Z,64.17
2023-08-13T23:56:43.991Z,63.95
2023-08-13T23:59:16.388Z,63.61
